createdAt,value
2022-12-22T00:02:33.582Z,97727.88
2022-12-22T00:05:19.644Z,97729.72
2022-12-22T00:08:05.503Z,97736.56
2022-12-22T00:10:51.387Z,97730.47
2022-12-22T00:13:37.349Z,97725.53
2022-12-22T00:16:23.319Z,97719.88
2022-12-22T00:19:09.355Z,97724.44
2022-12-22T00:21:55.056Z,97715.41
2022-12-22T00:24:40.486Z,97717.94
2022-12-22T00:27:38.222Z,97720.91
2022-12-22T00:30:32.638Z,97720.31
2022-12-22T00:33:19.645Z,97723.63
2022-12-22T00:36:05.688Z,97715.06
2022-12-22T00:38:51.486Z,97698.44
2022-12-22T00:41:37.299Z,97700.84
2022-12-22T00:44:23.305Z,97702.69
2022-12-22T00:47:08.634Z,97694.69
2022-12-22T00:49:55.501Z,97693.78
2022-12-22T00:52:43.017Z,97687.22
2022-12-22T00:55:35.035Z,97688.66
2022-12-22T00:58:23.053Z,97689.50
2022-12-22T01:01:08.962Z,97687.78
2022-12-22T01:03:54.856Z,97684.50
2022-12-22T01:06:50.911Z,97685.47
2022-12-22T01:09:36.540Z,97682.38
2022-12-22T01:12:33.759Z,97681.59
2022-12-22T01:15:20.009Z,97698.56
2022-12-22T01:18:05.983Z,97697.19
2022-12-22T01:20:51.182Z,97703.41
2022-12-22T01:23:36.920Z,97704.19
2022-12-22T01:26:22.737Z,97707.44
2022-12-22T01:29:08.630Z,97704.03
2022-12-22T01:31:54.524Z,97710.44
2022-12-22T01:34:40.532Z,97699.84
2022-12-22T01:37:26.250Z,97702.09
2022-12-22T01:40:12.258Z,97705.78
2022-12-22T01:42:58.226Z,97706.66
2022-12-22T01:45:50.711Z,97697.31
2022-12-22T01:48:41.781Z,97697.16
2022-12-22T01:51:39.652Z,97692.09
2022-12-22T01:54:26.200Z,97688.19
2022-12-22T01:57:11.964Z,97682.28
2022-12-22T01:59:57.929Z,97683.38
2022-12-22T02:02:45.470Z,97684.44
2022-12-22T02:05:33.797Z,97698.53
2022-12-22T02:08:44.081Z,97692.00
2022-12-22T02:12:06.919Z,97682.50
2022-12-22T02:15:18.628Z,97657.25
2022-12-22T02:18:37.665Z,97666.47
2022-12-22T02:21:37.269Z,97669.34
2022-12-22T02:24:55.056Z,97654.91
2022-12-22T02:27:42.820Z,97658.97
2022-12-22T02:30:29.178Z,97654.97
2022-12-22T02:33:14.498Z,97667.59
2022-12-22T02:36:36.586Z,97670.09
2022-12-22T02:40:04.375Z,97660.13
2022-12-22T02:43:08.874Z,97654.97
2022-12-22T02:46:29.273Z,97653.00
2022-12-22T02:49:20.351Z,97651.56
2022-12-22T02:52:11.264Z,97635.28
2022-12-22T02:54:58.142Z,97638.50
2022-12-22T02:57:44.028Z,97626.44
2022-12-22T03:00:30.577Z,97626.69
2022-12-22T03:03:17.316Z,97624.44
2022-12-22T03:06:03.376Z,97631.81
2022-12-22T03:08:49.220Z,97621.34
2022-12-22T03:11:35.123Z,97614.75
2022-12-22T03:14:20.963Z,97604.06
2022-12-22T03:17:06.745Z,97622.47
2022-12-22T03:19:51.955Z,97624.47
2022-12-22T03:22:37.636Z,97605.66
2022-12-22T03:25:23.838Z,97598.84
2022-12-22T03:27:51.174Z,97593.03
2022-12-22T03:30:18.588Z,97591.50
2022-12-22T03:32:45.883Z,97583.28
2022-12-22T03:35:13.154Z,97568.44
2022-12-22T03:37:40.460Z,97572.81
2022-12-22T03:40:08.319Z,97588.09
2022-12-22T03:42:53.586Z,97566.28
2022-12-22T03:45:59.295Z,97562.06
2022-12-22T03:48:26.181Z,97555.63
2022-12-22T03:50:53.262Z,97541.28
2022-12-22T03:53:20.592Z,97535.25
2022-12-22T03:55:47.865Z,97525.81
2022-12-22T03:58:15.147Z,97534.38
2022-12-22T04:00:42.185Z,97533.78
2022-12-22T04:03:09.710Z,97532.22
2022-12-22T04:05:37.106Z,97535.38
2022-12-22T04:08:04.144Z,97536.34
2022-12-22T04:10:49.989Z,97542.78
2022-12-22T04:13:17.301Z,97542.47
2022-12-22T04:15:44.209Z,97538.63
2022-12-22T04:18:11.236Z,97531.59
2022-12-22T04:20:38.147Z,97525.38
2022-12-22T04:23:05.021Z,97536.34
2022-12-22T04:25:32.323Z,97535.47
2022-12-22T04:27:59.379Z,97536.00
2022-12-22T04:30:26.665Z,97521.16
2022-12-22T04:32:53.750Z,97521.94
2022-12-22T04:35:20.652Z,97516.09
2022-12-22T04:37:48.012Z,97513.56
2022-12-22T04:40:14.910Z,97519.97
2022-12-22T04:42:41.781Z,97523.44
2022-12-22T04:45:09.358Z,97532.81
2022-12-22T04:47:36.201Z,97521.59
2022-12-22T04:50:03.839Z,97523.03
2022-12-22T04:52:30.840Z,97523.03
2022-12-22T04:54:57.715Z,97530.81
2022-12-22T04:57:24.660Z,97529.16
2022-12-22T04:59:51.552Z,97523.25
2022-12-22T05:02:18.556Z,97539.63
2022-12-22T05:04:45.536Z,97526.94
2022-12-22T05:07:12.407Z,97531.78
2022-12-22T05:09:40.201Z,97534.22
2022-12-22T05:12:27.221Z,97520.41
2022-12-22T05:14:54.111Z,97516.72
2022-12-22T05:17:21.117Z,97513.53
2022-12-22T05:19:48.245Z,97508.00
2022-12-22T05:22:15.131Z,97512.00
2022-12-22T05:24:42.016Z,97506.59
2022-12-22T05:27:11.268Z,97512.81
2022-12-22T05:29:38.234Z,97512.09
2022-12-22T05:32:05.391Z,97505.03
2022-12-22T05:34:32.282Z,97502.34
2022-12-22T05:36:59.189Z,97502.03
2022-12-22T05:39:26.088Z,97504.09
2022-12-22T05:41:52.970Z,97517.78
2022-12-22T05:44:19.890Z,97517.22
2022-12-22T05:46:46.857Z,97513.88
2022-12-22T05:49:13.905Z,97505.66
2022-12-22T05:51:40.983Z,97500.78
2022-12-22T05:54:09.479Z,97511.69
2022-12-22T05:56:36.795Z,97501.72
2022-12-22T05:59:04.337Z,97498.69
2022-12-22T06:01:31.680Z,97519.13
2022-12-22T06:04:00.668Z,97503.59
2022-12-22T06:06:28.501Z,97497.31
2022-12-22T06:08:55.828Z,97499.06
2022-12-22T06:11:22.765Z,97498.88
2022-12-22T06:13:50.301Z,97494.00
2022-12-22T06:16:18.002Z,97487.72
2022-12-22T06:18:45.123Z,97485.81
2022-12-22T06:21:12.041Z,97491.19
2022-12-22T06:23:39.066Z,97493.06
2022-12-22T06:26:06.060Z,97481.00
2022-12-22T06:28:32.993Z,97464.72
2022-12-22T06:31:00.394Z,97478.97
2022-12-22T06:33:27.312Z,97476.50
2022-12-22T06:35:58.896Z,97483.81
2022-12-22T06:38:28.109Z,97467.19
2022-12-22T06:40:55.170Z,97468.94
2022-12-22T06:43:22.116Z,97468.88
2022-12-22T06:45:49.411Z,97460.22
2022-12-22T06:48:16.751Z,97473.88
2022-12-22T06:50:43.854Z,97484.66
2022-12-22T06:53:11.074Z,97484.97
2022-12-22T06:55:38.395Z,97478.47
2022-12-22T06:58:05.861Z,97478.75
2022-12-22T07:00:33.358Z,97479.31
2022-12-22T07:03:00.773Z,97469.31
2022-12-22T07:05:27.988Z,97486.78
2022-12-22T07:07:54.892Z,97489.50
2022-12-22T07:10:41.848Z,97487.94
2022-12-22T07:13:19.663Z,97482.28
2022-12-22T07:15:53.865Z,97481.84
2022-12-22T07:18:26.758Z,97499.66
2022-12-22T07:20:54.937Z,97505.59
2022-12-22T07:23:21.922Z,97508.47
2022-12-22T07:25:48.853Z,97505.69
2022-12-22T07:28:20.733Z,97502.97
2022-12-22T07:30:50.336Z,97502.13
2022-12-22T07:33:18.286Z,97504.00
2022-12-22T07:35:45.552Z,97495.78
2022-12-22T07:38:13.162Z,97500.41
2022-12-22T07:40:42.368Z,97491.34
2022-12-22T07:43:10.426Z,97510.56
2022-12-22T07:45:37.366Z,97498.16
2022-12-22T07:48:24.735Z,97506.75
2022-12-22T07:50:52.135Z,97501.91
2022-12-22T07:53:19.086Z,97505.59
2022-12-22T07:55:45.963Z,97506.06
2022-12-22T07:58:12.835Z,97508.13
2022-12-22T08:00:40.218Z,97504.88
2022-12-22T08:03:07.351Z,97518.75
2022-12-22T08:05:34.403Z,97507.16
2022-12-22T08:08:01.293Z,97503.44
2022-12-22T08:10:28.640Z,97505.50
2022-12-22T08:12:56.861Z,97520.91
2022-12-22T08:15:24.228Z,97499.75
2022-12-22T08:17:51.754Z,97505.50
2022-12-22T08:20:18.708Z,97505.00
2022-12-22T08:22:45.613Z,97515.22
2022-12-22T08:25:12.544Z,97519.47
2022-12-22T08:27:49.373Z,97504.03
2022-12-22T08:30:16.782Z,97512.06
2022-12-22T08:32:47.211Z,97510.44
2022-12-22T08:35:14.666Z,97509.22
2022-12-22T08:37:45.366Z,97504.41
2022-12-22T08:40:20.106Z,97506.16
2022-12-22T08:42:48.214Z,97506.63
2022-12-22T08:45:15.163Z,97512.28
2022-12-22T08:47:42.744Z,97516.78
2022-12-22T08:50:10.180Z,97511.56
2022-12-22T08:52:37.925Z,97504.84
2022-12-22T08:55:05.198Z,97499.66
2022-12-22T08:57:32.119Z,97502.59
2022-12-22T08:59:59.642Z,97497.28
2022-12-22T09:02:27.757Z,97505.78
2022-12-22T09:04:54.928Z,97510.41
2022-12-22T09:07:21.864Z,97500.69
2022-12-22T09:09:49.401Z,97500.34
2022-12-22T09:12:16.744Z,97509.44
2022-12-22T09:14:44.048Z,97496.19
2022-12-22T09:17:11.426Z,97495.78
2022-12-22T09:19:38.448Z,97501.53
2022-12-22T09:22:05.417Z,97502.34
2022-12-22T09:24:32.361Z,97506.94
2022-12-22T09:26:59.429Z,97505.66
2022-12-22T09:29:26.314Z,97496.31
2022-12-22T09:31:53.309Z,97498.34
2022-12-22T09:34:20.245Z,97491.63
2022-12-22T09:36:47.906Z,97511.91
2022-12-22T09:39:16.168Z,97519.72
2022-12-22T09:41:51.175Z,97525.94
2022-12-22T09:44:36.885Z,97556.50
2022-12-22T09:47:16.973Z,97548.28
2022-12-22T09:49:44.103Z,97556.94
2022-12-22T09:52:33.381Z,97572.22
2022-12-22T09:55:02.135Z,97566.34
2022-12-22T09:57:33.433Z,97565.69
2022-12-22T10:00:16.305Z,97561.06
2022-12-22T10:03:00.723Z,97559.72
2022-12-22T10:05:57.283Z,97564.63
2022-12-22T10:08:34.054Z,97561.31
2022-12-22T10:11:01.277Z,97557.25
2022-12-22T10:13:28.266Z,97551.13
2022-12-22T10:15:55.933Z,97559.22
2022-12-22T10:18:28.922Z,97552.56
2022-12-22T10:21:14.347Z,97576.13
2022-12-22T10:23:49.046Z,97583.41
2022-12-22T10:26:30.770Z,97569.34
2022-12-22T10:29:06.727Z,97574.09
2022-12-22T10:31:36.920Z,97688.66
2022-12-22T10:34:13.825Z,97651.31
2022-12-22T10:36:47.329Z,97578.78
2022-12-22T10:39:23.926Z,97573.63
2022-12-22T10:41:55.178Z,97568.81
2022-12-22T10:44:28.980Z,97568.78
2022-12-22T10:46:58.887Z,97578.81
2022-12-22T10:52:29.541Z,97559.44
2022-12-22T10:55:25.773Z,97571.19
2022-12-22T10:58:16.683Z,97561.44
2022-12-22T11:00:45.175Z,97564.09
2022-12-22T11:03:19.193Z,97569.47
2022-12-22T11:05:49.719Z,97565.69
2022-12-22T11:08:19.333Z,97563.09
2022-12-22T11:11:06.025Z,97559.38
2022-12-22T11:14:00.928Z,97556.97
2022-12-22T11:17:03.719Z,97563.47
2022-12-22T11:19:53.663Z,97549.59
2022-12-22T11:22:37.226Z,97557.16
2022-12-22T11:25:29.925Z,97549.03
2022-12-22T11:28:28.392Z,97554.31
2022-12-22T11:31:22.498Z,97542.84
2022-12-22T11:34:28.115Z,97546.28
2022-12-22T11:37:56.377Z,97550.03
2022-12-22T11:40:38.407Z,97550.59
2022-12-22T11:43:53.411Z,97553.03
2022-12-22T11:46:29.369Z,97549.22
2022-12-22T11:49:41.791Z,97552.28
2022-12-22T11:52:41.178Z,97562.69
2022-12-22T11:55:19.659Z,97569.19
2022-12-22T11:57:58.195Z,97571.13
2022-12-22T12:00:42.690Z,97571.50
2022-12-22T12:03:40.958Z,97567.16
2022-12-22T12:06:17.534Z,97568.38
2022-12-22T12:09:05.430Z,97563.72
2022-12-22T12:11:36.641Z,97568.69
2022-12-22T12:14:35.516Z,97555.97
2022-12-22T12:17:38.998Z,97573.28
2022-12-22T12:20:49.948Z,97570.19
2022-12-22T12:23:40.538Z,97576.50
2022-12-22T12:26:32.242Z,97581.63
2022-12-22T12:29:23.123Z,97589.53
2022-12-22T12:32:21.779Z,97590.00
2022-12-22T12:34:52.971Z,97584.69
2022-12-22T12:37:30.827Z,97604.19
2022-12-22T12:40:16.781Z,97605.91
2022-12-22T12:42:46.924Z,97600.13
2022-12-22T12:45:37.485Z,97593.22
2022-12-22T12:48:25.326Z,97597.50
2022-12-22T12:50:54.505Z,97600.44
2022-12-22T12:53:27.150Z,97603.03
2022-12-22T12:56:00.337Z,97616.19
2022-12-22T12:58:37.687Z,97614.00
2022-12-22T13:01:18.734Z,97618.44
2022-12-22T13:04:03.464Z,97622.22
2022-12-22T13:06:51.226Z,97603.00
2022-12-22T13:12:48.407Z,97622.16
2022-12-22T13:15:39.060Z,97630.66
2022-12-22T13:18:24.896Z,97634.78
2022-12-22T13:21:34.344Z,97641.47
2022-12-22T13:24:22.855Z,97651.41
2022-12-22T13:26:55.101Z,97653.06
2022-12-22T13:29:47.343Z,97659.13
2022-12-22T13:32:33.921Z,97658.75
2022-12-22T13:35:32.538Z,97666.50
2022-12-22T13:38:01.231Z,97668.31
2022-12-22T13:40:49.179Z,97667.44
2022-12-22T13:43:18.000Z,97670.38
2022-12-22T13:45:50.982Z,97664.50
2022-12-22T13:48:44.753Z,97675.47
2022-12-22T13:51:35.924Z,97676.69
2022-12-22T13:54:20.000Z,97686.75
2022-12-22T13:56:50.995Z,97702.88
2022-12-22T13:59:28.709Z,97697.78
2022-12-22T14:02:17.426Z,97700.94
2022-12-22T14:05:05.851Z,97701.50
2022-12-22T14:07:32.839Z,97708.00
2022-12-22T14:09:59.949Z,97707.25
2022-12-22T14:12:36.929Z,97715.53
2022-12-22T14:15:09.234Z,97715.16
2022-12-22T14:17:42.261Z,97716.19
2022-12-22T14:20:35.623Z,97721.88
2022-12-22T14:23:15.876Z,97714.59
2022-12-22T14:25:44.953Z,97718.66
2022-12-22T14:28:27.850Z,97715.56
2022-12-22T14:30:58.838Z,97722.50
2022-12-22T14:33:28.324Z,97718.78
2022-12-22T14:36:26.704Z,97724.22
2022-12-22T14:38:57.117Z,97721.81
2022-12-22T14:41:41.487Z,97720.22
2022-12-22T14:44:18.687Z,97712.53
2022-12-22T14:47:12.218Z,97713.44
2022-12-22T14:49:50.139Z,97718.44
2022-12-22T14:52:46.399Z,97732.28
2022-12-22T14:55:35.111Z,97727.53
2022-12-22T14:58:06.691Z,97720.72
2022-12-22T15:00:41.787Z,97734.63
2022-12-22T15:03:34.393Z,97738.97
2022-12-22T15:06:24.993Z,97745.19
2022-12-22T15:08:54.358Z,97739.22
2022-12-22T15:11:24.093Z,97744.66
2022-12-22T15:13:52.224Z,97744.00
2022-12-22T15:16:21.747Z,97736.97
2022-12-22T15:18:50.359Z,97744.50
2022-12-22T15:21:19.201Z,97746.06
2022-12-22T15:23:47.034Z,97744.34
2022-12-22T15:26:15.021Z,97748.97
2022-12-22T15:28:42.330Z,97741.06
2022-12-22T15:31:17.061Z,97734.28
2022-12-22T15:33:45.301Z,97748.34
2022-12-22T15:36:14.264Z,97741.97
2022-12-22T15:38:41.700Z,97732.75
2022-12-22T15:41:08.647Z,97744.63
2022-12-22T15:46:22.834Z,97751.78
2022-12-22T15:48:50.248Z,97754.94
2022-12-22T15:51:25.872Z,97759.56
2022-12-22T15:53:55.071Z,97735.72
2022-12-22T15:56:25.115Z,97744.88
2022-12-22T15:58:53.018Z,97751.69
2022-12-22T16:01:20.427Z,97754.97
2022-12-22T16:03:47.831Z,97749.09
2022-12-22T16:06:17.651Z,97756.50
2022-12-22T16:08:49.759Z,97757.47
2022-12-22T16:11:17.446Z,97753.41
2022-12-22T16:13:45.126Z,97750.25
2022-12-22T16:16:12.547Z,97749.56
2022-12-22T16:18:39.564Z,97748.03
2022-12-22T16:21:17.508Z,97755.22
2022-12-22T16:23:47.049Z,97755.22
2022-12-22T16:26:20.467Z,97755.22
2022-12-22T16:28:47.585Z,97762.50
2022-12-22T16:31:21.620Z,97761.34
2022-12-22T16:33:50.054Z,97761.00
2022-12-22T16:36:17.113Z,97758.50
2022-12-22T16:38:45.974Z,97756.03
2022-12-22T16:41:22.793Z,97765.88
2022-12-22T16:46:39.115Z,97768.47
2022-12-22T16:49:09.121Z,97764.81
2022-12-22T16:51:53.432Z,97769.16
2022-12-22T16:54:26.178Z,97762.75
2022-12-22T16:56:53.142Z,97750.34
2022-12-22T16:59:20.460Z,97753.94
2022-12-22T17:02:09.355Z,97754.81
2022-12-22T17:04:40.283Z,97744.56
2022-12-22T17:07:09.224Z,97744.38
2022-12-22T17:09:55.905Z,97738.53
2022-12-22T17:12:27.670Z,97743.81
2022-12-22T17:14:56.289Z,97738.38
2022-12-22T17:17:32.042Z,97733.06
2022-12-22T17:20:02.684Z,97732.50
2022-12-22T17:22:34.398Z,97735.88
2022-12-22T17:25:04.603Z,97723.94
2022-12-22T17:27:33.585Z,97727.41
2022-12-22T17:30:04.223Z,97717.03
2022-12-22T17:32:31.166Z,97715.53
2022-12-22T17:34:58.195Z,97718.69
2022-12-22T17:37:25.315Z,97709.47
2022-12-22T17:39:57.358Z,97709.84
2022-12-22T17:42:24.765Z,97707.66
2022-12-22T17:44:52.410Z,97709.34
2022-12-22T17:47:30.492Z,97710.47
2022-12-22T17:49:59.384Z,97720.31
2022-12-22T17:52:27.970Z,97704.78
2022-12-22T17:54:55.580Z,97700.56
2022-12-22T17:57:32.929Z,97704.00
2022-12-22T18:00:00.583Z,97692.47
2022-12-22T18:02:28.153Z,97688.44
2022-12-22T18:04:55.272Z,97682.72
2022-12-22T18:07:24.761Z,97681.59
2022-12-22T18:09:57.219Z,97670.41
2022-12-22T18:12:24.787Z,97678.72
2022-12-22T18:14:52.673Z,97675.06
2022-12-22T18:17:35.524Z,97670.94
2022-12-22T18:20:03.854Z,97674.19
2022-12-22T18:22:32.056Z,97669.25
2022-12-22T18:24:59.515Z,97660.25
2022-12-22T18:27:27.080Z,97661.09
2022-12-22T18:29:54.503Z,97668.28
2022-12-22T18:32:27.511Z,97672.72
2022-12-22T18:34:55.477Z,97656.13
2022-12-22T18:37:25.612Z,97656.22
2022-12-22T18:39:53.307Z,97653.38
2022-12-22T18:42:23.585Z,97651.16
2022-12-22T18:44:51.615Z,97642.25
2022-12-22T18:47:19.179Z,97637.03
2022-12-22T18:49:46.683Z,97636.88
2022-12-22T18:52:22.143Z,97632.34
2022-12-22T18:54:49.949Z,97629.88
2022-12-22T18:57:21.515Z,97631.69
2022-12-22T18:59:49.126Z,97625.25
2022-12-22T19:02:21.394Z,97628.25
2022-12-22T19:04:50.704Z,97634.38
2022-12-22T19:07:22.274Z,97630.34
2022-12-22T19:09:49.990Z,97623.47
2022-12-22T19:12:25.297Z,97622.78
2022-12-22T19:15:05.545Z,97613.47
2022-12-22T19:17:33.015Z,97611.25
2022-12-22T19:20:00.191Z,97607.31
2022-12-22T19:22:27.943Z,97606.91
2022-12-22T19:24:57.663Z,97600.31
2022-12-22T19:27:26.768Z,97598.88
2022-12-22T19:30:03.124Z,97600.13
2022-12-22T19:32:46.139Z,97593.25
2022-12-22T19:35:23.105Z,97585.88
2022-12-22T19:37:54.851Z,97593.91
2022-12-22T19:40:26.795Z,97591.59
2022-12-22T19:42:56.343Z,97592.81
2022-12-22T19:45:35.412Z,97600.59
2022-12-22T19:48:04.666Z,97603.25
2022-12-22T19:50:32.290Z,97596.09
2022-12-22T19:53:02.169Z,97607.56
2022-12-22T19:55:32.477Z,97602.47
2022-12-22T19:58:00.154Z,97601.38
2022-12-22T20:00:27.927Z,97607.34
2022-12-22T20:02:57.118Z,97610.34
2022-12-22T20:05:24.391Z,97598.75
2022-12-22T20:07:53.930Z,97592.56
2022-12-22T20:10:22.160Z,97596.31
2022-12-22T20:12:51.979Z,97587.38
2022-12-22T20:15:22.936Z,97584.53
2022-12-22T20:17:52.412Z,97571.69
2022-12-22T20:20:42.120Z,97570.66
2022-12-22T20:23:21.460Z,97582.69
2022-12-22T20:25:58.619Z,97590.47
2022-12-22T20:28:32.985Z,97599.44
2022-12-22T20:31:02.530Z,97600.84
2022-12-22T20:33:30.525Z,97586.22
2022-12-22T20:36:00.227Z,97583.84
2022-12-22T20:38:42.036Z,97565.06
2022-12-22T20:41:10.474Z,97559.41
2022-12-22T20:43:38.505Z,97551.94
2022-12-22T20:46:24.063Z,97560.94
2022-12-22T20:49:02.935Z,97549.16
2022-12-22T20:51:33.161Z,97571.72
2022-12-22T20:54:00.887Z,97588.38
2022-12-22T20:56:35.156Z,97598.16
2022-12-22T20:59:27.453Z,97560.63
2022-12-22T21:01:54.601Z,97558.19
2022-12-22T21:04:22.217Z,97545.38
2022-12-22T21:06:52.526Z,97529.28
2022-12-22T21:09:26.758Z,97532.25
2022-12-22T21:11:53.636Z,97523.06
2022-12-22T21:14:22.138Z,97524.91
2022-12-22T21:16:49.325Z,97520.53
2022-12-22T21:19:18.871Z,97515.69
2022-12-22T21:21:46.465Z,97502.75
2022-12-22T21:24:13.449Z,97507.47
2022-12-22T21:26:45.274Z,97503.88
2022-12-22T21:29:24.342Z,97502.44
2022-12-22T21:31:52.459Z,97502.13
2022-12-22T21:34:23.360Z,97504.59
2022-12-22T21:37:12.207Z,97508.13
2022-12-22T21:40:21.679Z,97496.06
2022-12-22T21:42:50.021Z,97498.34
2022-12-22T21:45:23.912Z,97497.72
2022-12-22T21:47:51.294Z,97502.56
2022-12-22T21:50:27.922Z,97478.94
2022-12-22T21:52:55.697Z,97479.91
2022-12-22T21:55:34.384Z,97484.06
2022-12-22T21:58:01.784Z,97484.25
2022-12-22T22:00:30.246Z,97481.88
2022-12-22T22:02:57.782Z,97482.88
2022-12-22T22:05:37.278Z,97479.06
2022-12-22T22:08:07.686Z,97498.00
2022-12-22T22:10:40.923Z,97495.00
2022-12-22T22:13:10.040Z,97475.22
2022-12-22T22:15:37.695Z,97448.09
2022-12-22T22:18:07.556Z,97436.63
2022-12-22T22:20:35.181Z,97425.84
2022-12-22T22:23:02.079Z,97409.19
2022-12-22T22:25:29.363Z,97416.78
2022-12-22T22:27:59.817Z,97396.78
2022-12-22T22:30:26.913Z,97399.19
2022-12-22T22:32:55.419Z,97398.00
2022-12-22T22:35:26.626Z,97389.19
2022-12-22T22:37:53.706Z,97385.97
2022-12-22T22:40:22.804Z,97374.16
2022-12-22T22:42:50.190Z,97359.53
2022-12-22T22:45:23.142Z,97368.44
2022-12-22T22:47:52.083Z,97354.06
2022-12-22T22:50:21.275Z,97344.91
2022-12-22T22:52:48.529Z,97327.38
2022-12-22T22:55:16.083Z,97320.06
2022-12-22T22:57:43.846Z,97314.78
2022-12-22T23:00:15.353Z,97329.19
2022-12-22T23:02:43.707Z,97333.06
2022-12-22T23:05:16.938Z,97321.50
2022-12-22T23:07:47.503Z,97320.28
2022-12-22T23:10:14.507Z,97320.25
2022-12-22T23:12:41.413Z,97312.34
2022-12-22T23:15:08.963Z,97303.63
2022-12-22T23:17:35.874Z,97286.31
2022-12-22T23:20:03.482Z,97293.63
2022-12-22T23:22:30.403Z,97279.22
2022-12-22T23:24:57.312Z,97272.28
2022-12-22T23:27:24.394Z,97273.28
2022-12-22T23:29:51.292Z,97264.72
2022-12-22T23:32:18.173Z,97263.09
2022-12-22T23:34:45.086Z,97271.25
2022-12-22T23:37:18.741Z,97262.28
2022-12-22T23:39:46.682Z,97269.69
2022-12-22T23:42:13.633Z,97267.22
2022-12-22T23:44:40.536Z,97252.00
2022-12-22T23:47:07.786Z,97261.53
2022-12-22T23:49:34.785Z,97255.66
2022-12-22T23:52:01.733Z,97253.00
2022-12-22T23:54:30.312Z,97274.25
2022-12-22T23:56:57.920Z,97269.63
2022-12-22T23:59:25.001Z,97271.47
